Terminal Aerodrome Forecast
Issued by NWS Atlanta, GA

Home | Current Version | Previous Version | Text Only | Print | Product List | Glossary On
Versions: 1 2 3 4 5 6 7 8 9 10 11 12 13 14 15 16 17 18 19 20 21 22 23 24 25 26 27 28 29 30 31 32 33 34
000
FTUS42 KFFC 232300
TAFAHN
TAF
KAHN 232329Z 2400/2424 06012KT P6SM SCT030
     FM240700 07010KT P6SM BKN020
     FM241400 06012G16KT P6SM SCT025 BKN045
     FM241700 06011G18KT P6SM BKN040
     FM242300 06010KT P6SM SCT045=

USA.gov is the U.S. government's official web portal to all federal, state and local government web resources and services.